Airfield :
LOGIN :

Register | Disclaimer

   EN    FR    IT 

 










Legend :    VFR   Marginal VFR   IFR   Intensive IFR   Very Intensive IFR
Visi :
Ceiling :
>= 8 km
>= 3000ft
5 to 8 km
1000 to 3000 ft
1500m to 5 km
500 to 1000 ft
800 to 1500m
200 to 500 ft
< 800m
< 200 ft
Symbols :   Thunderstorms  Fog  Heavy snow  Heavy precipitations  Wind > 20 kt
SIGMETs :     Misc.  Thunderstorms  Icing  Turbulence  Mountain Waves  Volcanic Ashes






- Airport Elevation : 656 ft
- IATA code : CMN


GMMN - Casablanca Mohammed V

CURRENT METAR :
  • 230200Z 19021G31KT 9999 -DZ BKN002 SCT013 BKN020 16/16 Q1011 NOSIG

EXPIRED METARs :
  • 230130Z 20020G30KT 6000 -DZ SCT003 SCT013 BKN020 16/16 Q1012 NOSIG
  • 230100Z 19019KT 6000 -DZ SCT003 SCT013 BKN020 16/16 Q1012 NOSIG
  • 230030Z 20019KT 4000 RA BKN010 BKN013 16/16 Q1012 RESHRA BECMG 6000 -RA SCT015 SCT020
  • 230000Z 19018KT 4000 RA BKN010 BKN013 16/16 Q1013 RESHRA BECMG 6000 -RA SCT015 BKN020
  • 222330Z 20019G30KT 4000 SHRA BKN012 SCT020TCU 16/16 Q1013 BECMG 6000 -RA BKN016

TAF TAF GMMN
Valid from the 23 at 00:00 until the 24 at 06:00 UTC


222300Z 2300/2406 22018KT 9999 SCT014 SCT020
TEMPO 2300/2306 22018G30KT 2000 SHRA SCT010 SCT020TCU FEW033CB
BECMG 2306/2310 30012KT BKN016
BECMG 2320/2324 VRB02KT
BECMG 2400/2404 BKN012 SCT016



MET'MAP, your aeronautical weather chart ! - Copyright ORBIFLY December 2007 - Disclaimer

ORBIFLY MET'MAP TEAM :

Programming & Development : Alexandra Zaïnal
Concept & Development : Baudouin d'Aumeries
Co-Development & Prog : Marc-Olivier Méhu
Technical & hardware support : Manuel Goepfert

Contact : metmap@orbifly.com




SOURCES & CREDITS :

   NOAA